createdAt,value
2019-04-09T00:01:13.949Z,29.73
2019-04-09T00:03:38.107Z,28.80
2019-04-09T00:06:02.697Z,34.87
2019-04-09T00:08:27.314Z,34.70
2019-04-09T00:10:51.081Z,32.13
2019-04-09T00:13:14.543Z,31.37
2019-04-09T00:15:38.165Z,32.67
2019-04-09T00:18:01.753Z,31.53
2019-04-09T00:20:25.161Z,31.33
2019-04-09T00:22:49.083Z,33.40
2019-04-09T00:25:12.549Z,32.43
2019-04-09T00:27:36.840Z,30.23
2019-04-09T00:30:00.355Z,32.50
2019-04-09T00:32:24.192Z,30.93
2019-04-09T00:34:48.602Z,32.73
2019-04-09T00:37:13.064Z,29.50
2019-04-09T00:39:36.909Z,29.93
2019-04-09T00:42:00.610Z,31.20
2019-04-09T00:44:24.260Z,31.97
2019-04-09T00:46:47.754Z,31.60
2019-04-09T00:49:11.452Z,32.10
2019-04-09T00:51:35.137Z,31.73
2019-04-09T00:53:58.731Z,32.70
2019-04-09T00:56:22.091Z,31.83
2019-04-09T00:58:45.810Z,34.07
2019-04-09T01:01:11.934Z,34.90
2019-04-09T01:03:36.651Z,32.87
2019-04-09T01:06:00.549Z,31.77
2019-04-09T01:08:24.198Z,30.53
2019-04-09T01:10:48.562Z,33.27
2019-04-09T01:13:12.250Z,36.03
2019-04-09T01:15:35.703Z,42.83
2019-04-09T01:17:59.126Z,51.40
2019-04-09T01:20:23.301Z,45.60
2019-04-09T01:22:46.808Z,39.83
2019-04-09T01:25:14.635Z,31.83
2019-04-09T01:27:43.522Z,33.47
2019-04-09T01:30:09.734Z,34.17
2019-04-09T01:32:51.636Z,34.43
2019-04-09T01:35:20.405Z,31.73
2019-04-09T01:38:01.970Z,31.27
2019-04-09T01:40:35.930Z,30.73
2019-04-09T01:43:13.924Z,30.17
2019-04-09T01:45:42.149Z,30.23
2019-04-09T01:48:23.169Z,29.83
2019-04-09T01:50:48.513Z,31.20
2019-04-09T01:53:19.115Z,29.57
2019-04-09T01:55:53.695Z,29.37
2019-04-09T01:58:18.752Z,29.77
2019-04-09T02:01:00.893Z,30.27
2019-04-09T02:03:31.716Z,28.17
2019-04-09T02:06:08.941Z,30.17
2019-04-09T02:08:42.844Z,31.07
2019-04-09T02:11:11.029Z,31.57
2019-04-09T02:13:36.272Z,31.90
2019-04-09T02:16:01.888Z,30.90
2019-04-09T02:18:43.036Z,32.00
2019-04-09T02:21:11.327Z,31.30
2019-04-09T02:23:52.586Z,35.40
2019-04-09T02:26:18.034Z,33.57
2019-04-09T02:28:46.289Z,33.60
2019-04-09T02:31:26.660Z,31.07
2019-04-09T02:33:54.717Z,31.37
2019-04-09T02:36:38.725Z,30.63
2019-04-09T02:39:10.622Z,30.70
2019-04-09T02:41:52.177Z,30.80
2019-04-09T02:44:21.114Z,30.93
2019-04-09T02:46:47.031Z,30.60
2019-04-09T02:49:14.894Z,30.03
2019-04-09T02:51:51.713Z,31.07
2019-04-09T02:54:16.825Z,30.10
2019-04-09T02:56:42.980Z,31.03
2019-04-09T02:59:08.087Z,34.57
2019-04-09T03:01:38.808Z,52.97
2019-04-09T03:04:13.079Z,56.27
2019-04-09T03:06:56.642Z,73.47
2019-04-09T03:09:24.572Z,49.90
2019-04-09T03:11:49.905Z,31.33
2019-04-09T03:14:15.619Z,31.77
2019-04-09T03:16:43.196Z,31.60
2019-04-09T03:19:27.045Z,36.20
2019-04-09T03:21:57.541Z,87.90
2019-04-09T03:24:27.652Z,97.50
2019-04-09T03:26:57.279Z,74.43
2019-04-09T03:29:23.224Z,63.47
2019-04-09T03:31:53.635Z,52.60
2019-04-09T03:34:18.719Z,47.67
2019-04-09T03:36:54.221Z,43.70
2019-04-09T03:39:19.942Z,44.53
2019-04-09T03:41:47.726Z,43.10
2019-04-09T03:44:24.972Z,43.63
2019-04-09T03:46:50.365Z,36.30
2019-04-09T03:49:24.716Z,34.53
2019-04-09T03:51:49.762Z,35.40
2019-04-09T03:54:30.786Z,35.63
2019-04-09T03:56:59.187Z,31.10
2019-04-09T03:59:27.273Z,29.10
2019-04-09T04:01:53.259Z,28.10
2019-04-09T04:04:24.070Z,28.47
2019-04-09T04:06:59.079Z,31.12
2019-04-09T04:09:25.005Z,30.57
2019-04-09T04:11:58.763Z,29.90
2019-04-09T04:14:24.770Z,31.50
2019-04-09T04:17:06.043Z,32.77
2019-04-09T04:19:31.192Z,29.20
2019-04-09T04:22:05.294Z,30.57
2019-04-09T04:24:36.916Z,28.43
2019-04-09T04:27:14.172Z,30.73
2019-04-09T04:29:39.635Z,30.60
2019-04-09T04:32:11.026Z,27.33
2019-04-09T04:34:39.681Z,28.17
2019-04-09T04:37:10.665Z,27.73
2019-04-09T04:39:41.558Z,27.73
2019-04-09T04:42:21.756Z,28.43
2019-04-09T04:44:46.881Z,29.47
2019-04-09T04:47:15.273Z,28.20
2019-04-09T04:49:55.977Z,29.07
2019-04-09T04:52:21.749Z,25.47
2019-04-09T04:55:02.387Z,24.43
2019-04-09T04:57:39.814Z,22.80
2019-04-09T05:00:13.662Z,24.53
2019-04-09T05:02:55.654Z,23.73
2019-04-09T05:05:29.563Z,25.13
2019-04-09T05:07:55.261Z,25.73
2019-04-09T05:10:20.318Z,26.27
2019-04-09T05:12:49.100Z,26.33
2019-04-09T05:15:17.439Z,25.33
2019-04-09T05:17:48.903Z,24.73
2019-04-09T05:20:30.599Z,26.85
2019-04-09T05:23:01.383Z,26.63
2019-04-09T05:25:35.578Z,24.07
2019-04-09T05:28:06.680Z,24.73
2019-04-09T05:30:41.370Z,23.97
2019-04-09T05:33:21.319Z,25.23
2019-04-09T05:35:47.385Z,25.83
2019-04-09T05:38:21.740Z,25.13
2019-04-09T05:40:53.117Z,26.43
2019-04-09T05:43:19.672Z,24.50
2019-04-09T05:45:44.809Z,24.40
2019-04-09T05:48:21.598Z,29.33
2019-04-09T05:51:04.233Z,24.70
2019-04-09T05:53:30.269Z,25.73
2019-04-09T05:56:13.905Z,26.60
2019-04-09T05:59:04.814Z,26.87
2019-04-09T06:01:24.753Z,39.20
2019-04-09T06:03:49.851Z,39.97
2019-04-09T06:06:31.097Z,40.83
2019-04-09T06:09:13.001Z,41.33
2019-04-09T06:11:36.761Z,44.23
2019-04-09T06:14:00.202Z,46.43
2019-04-09T06:16:23.679Z,45.47
2019-04-09T06:18:48.254Z,45.97
2019-04-09T06:21:17.388Z,45.47
2019-04-09T06:23:36.945Z,46.27
2019-04-09T06:26:00.424Z,46.40
2019-04-09T06:28:24.032Z,46.33
2019-04-09T06:30:47.476Z,46.60
2019-04-09T06:33:15.697Z,45.93
2019-04-09T06:35:44.273Z,46.80
2019-04-09T06:38:25.311Z,48.30
2019-04-09T06:41:06.693Z,45.50
2019-04-09T06:43:32.426Z,46.03
2019-04-09T06:46:07.346Z,46.63
2019-04-09T06:48:33.360Z,47.40
2019-04-09T06:51:14.389Z,50.30
2019-04-09T06:53:48.525Z,50.93
2019-04-09T06:56:13.632Z,49.33
2019-04-09T06:58:42.767Z,48.47
2019-04-09T07:01:24.579Z,48.10
2019-04-09T07:03:49.734Z,52.80
2019-04-09T07:06:14.845Z,50.43
2019-04-09T07:08:43.670Z,49.93
2019-04-09T07:11:21.514Z,47.03
2019-04-09T07:14:04.201Z,47.63
2019-04-09T07:16:45.603Z,49.17
2019-04-09T07:19:16.751Z,48.30
2019-04-09T07:21:48.737Z,48.43
2019-04-09T07:24:13.951Z,48.07
2019-04-09T07:26:48.564Z,47.97
2019-04-09T07:29:11.562Z,47.23
2019-04-09T07:31:53.189Z,46.30
2019-04-09T07:34:19.353Z,45.97
2019-04-09T07:36:44.748Z,46.13
2019-04-09T07:39:12.322Z,47.30
2019-04-09T07:41:54.516Z,46.33
2019-04-09T07:44:28.822Z,46.87
2019-04-09T07:46:56.505Z,48.63
2019-04-09T07:49:21.853Z,48.43
2019-04-09T07:51:53.457Z,47.17
2019-04-09T07:54:21.689Z,47.57
2019-04-09T07:56:47.172Z,49.57
2019-04-09T07:59:19.143Z,49.47
2019-04-09T08:01:48.347Z,47.50
2019-04-09T08:04:14.822Z,48.53
2019-04-09T08:06:50.237Z,47.47
2019-04-09T08:09:15.782Z,49.17
2019-04-09T08:11:44.478Z,47.63
2019-04-09T08:14:12.345Z,48.23
2019-04-09T08:16:55.733Z,49.37
2019-04-09T08:19:47.409Z,47.70
2019-04-09T08:22:28.738Z,47.07
2019-04-09T08:25:02.565Z,45.73
2019-04-09T08:27:27.803Z,43.53
2019-04-09T08:30:19.911Z,43.90
2019-04-09T08:32:31.736Z,43.57
2019-04-09T08:35:11.858Z,43.30
2019-04-09T08:37:40.159Z,42.20
2019-04-09T08:40:11.652Z,41.73
2019-04-09T08:42:41.116Z,42.27
2019-04-09T08:45:10.031Z,41.73
2019-04-09T08:47:51.255Z,44.70
2019-04-09T08:50:16.719Z,42.70
2019-04-09T08:52:53.554Z,43.47
2019-04-09T08:55:35.914Z,41.70
2019-04-09T08:58:21.232Z,42.57
2019-04-09T09:03:25.210Z,42.10
2019-04-09T09:05:57.636Z,42.80
2019-04-09T09:08:37.635Z,39.70
2019-04-09T09:11:02.230Z,41.23
2019-04-09T09:13:27.681Z,42.37
2019-04-09T09:16:07.752Z,41.50
2019-04-09T09:18:33.947Z,41.80
2019-04-09T09:21:12.399Z,41.47
2019-04-09T09:23:28.389Z,39.10
2019-04-09T09:25:54.473Z,41.40
2019-04-09T09:28:22.634Z,41.07
2019-04-09T09:31:11.911Z,39.67
2019-04-09T09:33:34.931Z,38.50
2019-04-09T09:36:04.433Z,39.73
2019-04-09T09:38:33.033Z,39.97
2019-04-09T09:41:04.097Z,37.97
2019-04-09T09:43:37.386Z,39.27
2019-04-09T09:46:03.349Z,38.13
2019-04-09T09:48:40.160Z,39.73
2019-04-09T09:51:24.275Z,37.47
2019-04-09T09:54:01.810Z,37.43
2019-04-09T09:56:35.958Z,38.50
2019-04-09T09:59:00.866Z,37.17
2019-04-09T10:01:37.142Z,37.93
2019-04-09T10:04:19.108Z,36.70
2019-04-09T10:06:52.168Z,37.73
2019-04-09T10:09:27.975Z,36.53
2019-04-09T10:12:11.651Z,36.20
2019-04-09T10:14:43.128Z,35.50
2019-04-09T10:17:11.221Z,35.88
2019-04-09T10:19:42.004Z,37.13
2019-04-09T10:22:07.120Z,35.60
2019-04-09T10:24:35.531Z,35.70
2019-04-09T10:27:17.617Z,35.67
2019-04-09T10:29:59.693Z,35.43
2019-04-09T10:32:25.887Z,35.33
2019-04-09T10:34:56.259Z,35.70
2019-04-09T10:37:26.540Z,37.83
2019-04-09T10:39:54.062Z,35.43
2019-04-09T10:42:21.861Z,36.43
2019-04-09T10:45:02.972Z,36.33
2019-04-09T10:47:44.775Z,37.37
2019-04-09T10:50:13.509Z,38.03
2019-04-09T10:52:52.599Z,37.07
2019-04-09T10:55:19.508Z,37.20
2019-04-09T10:57:44.662Z,35.60
2019-04-09T11:00:28.756Z,36.83
2019-04-09T11:02:54.296Z,35.53
2019-04-09T11:05:22.410Z,35.37
2019-04-09T11:07:57.281Z,36.37
2019-04-09T11:10:42.766Z,35.10
2019-04-09T11:13:18.676Z,35.73
2019-04-09T11:15:58.129Z,36.33
2019-04-09T11:18:23.393Z,36.00
2019-04-09T11:21:02.302Z,37.37
2019-04-09T11:23:39.556Z,34.47
2019-04-09T11:26:19.431Z,37.33
2019-04-09T11:28:44.541Z,35.90
2019-04-09T11:31:12.349Z,35.80
2019-04-09T11:33:43.271Z,35.80
2019-04-09T11:36:17.131Z,34.87
2019-04-09T11:38:45.857Z,35.07
2019-04-09T11:41:19.566Z,35.23
2019-04-09T11:43:44.682Z,36.00
2019-04-09T11:46:11.061Z,36.13
2019-04-09T11:48:48.051Z,34.47
2019-04-09T11:51:31.971Z,35.37
2019-04-09T11:54:06.337Z,37.23
2019-04-09T11:56:46.595Z,35.53
2019-04-09T11:59:17.296Z,35.73
2019-04-09T12:01:38.850Z,36.00
2019-04-09T12:04:06.336Z,36.60
2019-04-09T12:06:40.385Z,35.63
2019-04-09T12:09:07.566Z,35.67
2019-04-09T12:11:41.365Z,36.93
2019-04-09T12:14:06.836Z,35.13
2019-04-09T12:16:34.362Z,35.93
2019-04-09T12:18:59.993Z,35.43
2019-04-09T12:21:33.795Z,35.80
2019-04-09T12:24:07.331Z,34.13
2019-04-09T12:26:44.619Z,34.17
2019-04-09T12:29:26.319Z,35.17
2019-04-09T12:31:52.423Z,36.43
2019-04-09T12:34:32.624Z,36.83
2019-04-09T12:36:58.278Z,37.00
2019-04-09T12:39:24.811Z,35.33
2019-04-09T12:41:55.985Z,35.23
2019-04-09T12:44:38.120Z,36.03
2019-04-09T12:47:13.297Z,38.73
2019-04-09T12:49:38.533Z,36.65
2019-04-09T12:52:07.194Z,37.95
2019-04-09T12:54:47.534Z,36.38
2019-04-09T12:57:13.458Z,36.08
2019-04-09T12:59:41.792Z,37.88
2019-04-09T13:02:07.102Z,36.00
2019-04-09T13:04:50.769Z,35.70
2019-04-09T13:07:19.342Z,36.75
2019-04-09T13:09:44.636Z,36.45
2019-04-09T13:12:15.427Z,36.03
2019-04-09T13:14:50.163Z,38.15
2019-04-09T13:17:16.024Z,38.67
2019-04-09T13:19:56.242Z,37.78
2019-04-09T13:22:21.322Z,37.83
2019-04-09T13:24:47.246Z,38.53
2019-04-09T13:27:18.665Z,38.98
2019-04-09T13:29:49.834Z,36.98
2019-04-09T13:32:15.248Z,39.45
2019-04-09T13:34:40.291Z,40.20
2019-04-09T13:37:06.390Z,38.67
2019-04-09T13:39:31.665Z,37.00
2019-04-09T13:42:02.574Z,37.83
2019-04-09T13:44:31.333Z,39.78
2019-04-09T13:47:02.202Z,40.23
2019-04-09T13:49:43.889Z,41.77
2019-04-09T13:52:10.865Z,40.43
2019-04-09T13:54:34.504Z,41.57
2019-04-09T13:56:59.115Z,39.27
2019-04-09T13:59:23.838Z,39.43
2019-04-09T14:01:47.363Z,39.33
2019-04-09T14:04:18.251Z,39.80
2019-04-09T14:06:44.738Z,40.30
2019-04-09T14:09:07.891Z,40.43
2019-04-09T14:11:32.511Z,41.20
2019-04-09T14:13:56.411Z,40.53
2019-04-09T14:16:19.826Z,39.97
2019-04-09T14:18:44.219Z,41.00
2019-04-09T14:21:08.510Z,39.90
2019-04-09T14:23:32.231Z,40.23
2019-04-09T14:25:56.008Z,41.40
2019-04-09T14:28:19.734Z,38.97
2019-04-09T14:30:43.136Z,41.00
2019-04-09T14:33:10.928Z,39.53
2019-04-09T14:35:32.068Z,39.77
2019-04-09T14:37:59.518Z,40.13
2019-04-09T14:40:23.786Z,41.60
2019-04-09T14:42:47.213Z,40.80
2019-04-09T14:45:11.242Z,41.70
2019-04-09T14:47:34.690Z,40.87
2019-04-09T14:49:58.124Z,42.70
2019-04-09T14:52:22.574Z,40.47
2019-04-09T14:54:46.283Z,42.83
2019-04-09T14:57:10.304Z,43.70
2019-04-09T14:59:33.763Z,41.57
2019-04-09T15:01:57.380Z,41.93
2019-04-09T15:04:21.593Z,43.33
2019-04-09T15:06:45.112Z,43.10
2019-04-09T15:09:09.456Z,41.77
2019-04-09T15:11:34.125Z,43.50
2019-04-09T15:13:57.686Z,42.07
2019-04-09T15:16:21.605Z,42.17
2019-04-09T15:18:45.053Z,43.10
2019-04-09T15:21:22.442Z,43.27
2019-04-09T15:23:45.848Z,42.13
2019-04-09T15:26:09.650Z,43.90
2019-04-09T15:28:33.479Z,42.40
2019-04-09T15:30:57.228Z,43.07
2019-04-09T15:33:28.114Z,43.40
2019-04-09T15:35:46.073Z,43.73
2019-04-09T15:38:13.087Z,43.70
2019-04-09T15:40:36.734Z,43.80
2019-04-09T15:43:00.184Z,44.53
2019-04-09T15:45:23.622Z,44.40
2019-04-09T15:47:47.101Z,45.93
2019-04-09T15:50:11.658Z,44.83
2019-04-09T15:52:35.123Z,46.10
2019-04-09T15:54:59.129Z,48.00
2019-04-09T15:57:23.556Z,46.87
2019-04-09T15:59:47.076Z,49.13
2019-04-09T16:02:10.549Z,48.73
2019-04-09T16:04:36.625Z,47.83
2019-04-09T16:06:59.452Z,48.17
2019-04-09T16:09:23.171Z,47.20
2019-04-09T16:11:47.447Z,47.00
2019-04-09T16:14:11.671Z,45.10
2019-04-09T16:16:36.131Z,47.03
2019-04-09T16:18:59.478Z,46.73
2019-04-09T16:21:23.358Z,45.83
2019-04-09T16:23:46.846Z,47.37
2019-04-09T16:26:10.558Z,45.23
2019-04-09T16:28:34.025Z,44.77
2019-04-09T16:30:57.969Z,42.77
2019-04-09T16:33:22.645Z,44.33
2019-04-09T16:35:47.382Z,43.20
2019-04-09T16:38:10.869Z,43.13
2019-04-09T16:40:35.066Z,41.40
2019-04-09T16:43:04.708Z,41.30
2019-04-09T16:45:28.957Z,43.30
2019-04-09T16:47:53.416Z,41.53
2019-04-09T16:50:16.856Z,42.70
2019-04-09T16:52:40.446Z,41.20
2019-04-09T16:55:08.458Z,42.23
2019-04-09T16:57:33.067Z,40.43
2019-04-09T16:59:57.600Z,40.07
2019-04-09T17:02:24.128Z,39.70
2019-04-09T17:04:46.428Z,39.70
2019-04-09T17:07:09.859Z,39.10
2019-04-09T17:09:37.239Z,38.70
2019-04-09T17:11:58.867Z,37.87
2019-04-09T17:14:22.338Z,38.30
2019-04-09T17:16:46.852Z,36.83
2019-04-09T17:19:10.895Z,37.23
2019-04-09T17:21:35.169Z,36.77
2019-04-09T17:23:58.630Z,36.97
2019-04-09T17:26:22.327Z,37.70
2019-04-09T17:28:46.112Z,38.80
2019-04-09T17:31:09.544Z,35.77
2019-04-09T17:33:33.007Z,36.87
2019-04-09T17:35:56.955Z,37.30
2019-04-09T17:38:20.489Z,36.33
2019-04-09T17:40:44.019Z,39.70
2019-04-09T17:43:07.856Z,38.87
2019-04-09T17:45:31.357Z,40.97
2019-04-09T17:47:54.802Z,39.57
2019-04-09T17:50:18.255Z,40.33
2019-04-09T17:52:41.711Z,39.10
2019-04-09T17:55:08.497Z,38.13
2019-04-09T17:57:31.723Z,38.90
2019-04-09T17:59:55.205Z,41.27
2019-04-09T18:02:18.638Z,39.43
2019-04-09T18:04:49.516Z,39.17
2019-04-09T18:07:07.664Z,40.20
2019-04-09T18:09:31.652Z,38.33
2019-04-09T18:11:55.554Z,39.03
2019-04-09T18:14:19.043Z,38.13
2019-04-09T18:16:42.669Z,39.53
2019-04-09T18:19:08.312Z,40.80
2019-04-09T18:21:32.362Z,37.53
2019-04-09T18:23:56.356Z,40.00
2019-04-09T18:26:20.797Z,41.17
2019-04-09T18:28:44.925Z,42.70
2019-04-09T18:31:19.145Z,42.47
2019-04-09T18:33:33.625Z,41.07
2019-04-09T18:35:57.951Z,39.53
2019-04-09T18:38:21.420Z,39.87
2019-04-09T18:40:45.019Z,38.93
2019-04-09T18:43:08.629Z,40.27
2019-04-09T18:45:33.194Z,39.30
2019-04-09T18:47:56.680Z,39.90
2019-04-09T18:50:20.151Z,39.00
2019-04-09T18:52:44.668Z,39.73
2019-04-09T18:55:09.557Z,40.03
2019-04-09T18:57:34.369Z,39.23
2019-04-09T18:59:57.906Z,38.20
2019-04-09T19:02:21.394Z,39.40
2019-04-09T19:04:45.941Z,38.60
2019-04-09T19:07:10.292Z,38.57
2019-04-09T19:09:34.552Z,39.30
2019-04-09T19:11:58.311Z,39.30
2019-04-09T19:14:22.005Z,39.97
2019-04-09T19:16:46.482Z,38.90
2019-04-09T19:19:10.053Z,39.40
2019-04-09T19:21:34.460Z,36.97
2019-04-09T19:23:58.346Z,37.80
2019-04-09T19:26:22.048Z,39.07
2019-04-09T19:28:46.451Z,39.57
2019-04-09T19:31:09.961Z,38.63
2019-04-09T19:33:34.079Z,37.73
2019-04-09T19:35:57.588Z,38.87
2019-04-09T19:38:21.021Z,40.40
2019-04-09T19:40:44.750Z,38.10
2019-04-09T19:43:08.287Z,38.60
2019-04-09T19:45:33.337Z,38.47
2019-04-09T19:47:57.759Z,39.73
2019-04-09T19:50:21.209Z,39.07
2019-04-09T19:52:45.255Z,39.20
2019-04-09T19:55:09.844Z,40.60
2019-04-09T19:57:33.409Z,39.47
2019-04-09T19:59:57.083Z,40.43
2019-04-09T20:02:20.824Z,42.70
2019-04-09T20:04:45.470Z,42.77
2019-04-09T20:07:10.113Z,43.57
2019-04-09T20:09:33.857Z,40.63
2019-04-09T20:11:58.372Z,42.13
2019-04-09T20:14:25.031Z,38.60
2019-04-09T20:16:48.460Z,40.57
2019-04-09T20:19:12.515Z,41.40
2019-04-09T20:21:36.889Z,39.67
2019-04-09T20:24:00.591Z,41.17
2019-04-09T20:26:24.359Z,39.73
2019-04-09T20:28:47.977Z,42.03
2019-04-09T20:31:12.351Z,45.33
2019-04-09T20:33:35.829Z,47.77
2019-04-09T20:35:59.529Z,47.70
2019-04-09T20:38:22.936Z,49.33
2019-04-09T20:40:46.388Z,46.30
2019-04-09T20:43:11.042Z,43.83
2019-04-09T20:45:35.848Z,42.77
2019-04-09T20:47:59.311Z,41.80
2019-04-09T20:50:23.797Z,45.27
2019-04-09T20:52:48.230Z,41.30
2019-04-09T20:55:13.571Z,43.90
2019-04-09T20:57:37.873Z,42.60
2019-04-09T21:00:12.219Z,42.83
2019-04-09T21:02:30.283Z,41.57
2019-04-09T21:04:53.762Z,41.70
2019-04-09T21:07:17.922Z,42.77
2019-04-09T21:09:41.303Z,40.70
2019-04-09T21:12:04.765Z,40.13
2019-04-09T21:14:28.696Z,40.17
2019-04-09T21:16:53.256Z,39.20
2019-04-09T21:19:16.992Z,38.70
2019-04-09T21:21:40.426Z,38.60
2019-04-09T21:24:04.822Z,39.47
2019-04-09T21:26:28.236Z,39.83
2019-04-09T21:28:52.138Z,38.83
2019-04-09T21:31:15.573Z,38.53
2019-04-09T21:33:39.994Z,38.43
2019-04-09T21:36:09.447Z,39.13
2019-04-09T21:38:29.687Z,40.73
2019-04-09T21:40:53.882Z,39.10
2019-04-09T21:43:18.100Z,38.67
2019-04-09T21:45:41.607Z,39.42
2019-04-09T21:48:05.134Z,39.03
2019-04-09T21:50:28.900Z,40.48
2019-04-09T21:52:53.066Z,40.57
2019-04-09T21:55:16.544Z,42.00
2019-04-09T21:57:41.254Z,42.53
2019-04-09T22:00:10.330Z,41.07
2019-04-09T22:02:34.316Z,41.97
2019-04-09T22:04:58.255Z,41.43
2019-04-09T22:07:21.726Z,42.05
2019-04-09T22:09:45.225Z,43.20
2019-04-09T22:12:09.411Z,46.33
2019-04-09T22:14:32.961Z,42.73
2019-04-09T22:16:57.303Z,41.07
2019-04-09T22:19:20.812Z,40.00
2019-04-09T22:21:44.885Z,40.47
2019-04-09T22:24:08.411Z,39.97
2019-04-09T22:26:31.836Z,40.73
2019-04-09T22:28:55.258Z,39.23
2019-04-09T22:31:19.545Z,39.53
2019-04-09T22:33:43.351Z,37.30
2019-04-09T22:36:06.771Z,38.73
2019-04-09T22:38:31.200Z,36.97
2019-04-09T22:40:55.145Z,37.43
2019-04-09T22:43:18.581Z,34.47
2019-04-09T22:45:42.278Z,35.73
2019-04-09T22:48:06.152Z,36.70
2019-04-09T22:50:30.258Z,37.37
2019-04-09T22:52:54.248Z,33.90
2019-04-09T22:55:18.232Z,33.67
2019-04-09T22:57:42.326Z,34.40
2019-04-09T23:00:09.079Z,33.87
2019-04-09T23:02:48.959Z,32.73
2019-04-09T23:05:14.956Z,32.63
2019-04-09T23:07:45.794Z,32.47
2019-04-09T23:10:28.005Z,33.83
2019-04-09T23:12:54.107Z,33.67
2019-04-09T23:15:19.252Z,32.07
2019-04-09T23:17:42.680Z,31.80
2019-04-09T23:20:07.644Z,31.30
2019-04-09T23:22:31.974Z,32.23
2019-04-09T23:24:56.023Z,32.00
2019-04-09T23:27:19.732Z,30.93
2019-04-09T23:29:43.463Z,30.10
2019-04-09T23:32:07.575Z,30.00
2019-04-09T23:34:31.044Z,30.50
2019-04-09T23:36:59.427Z,31.10
2019-04-09T23:39:19.678Z,33.90
2019-04-09T23:41:43.998Z,30.90
2019-04-09T23:44:08.196Z,30.43
2019-04-09T23:46:31.951Z,30.50
2019-04-09T23:48:55.449Z,31.53
2019-04-09T23:51:19.684Z,30.07
2019-04-09T23:53:43.468Z,28.43
2019-04-09T23:56:07.462Z,28.83
2019-04-09T23:58:30.908Z,27.93
